createdAt,value
2023-05-20T00:01:03.990Z,4.20
2023-05-20T00:03:31.976Z,4.60
2023-05-20T00:05:59.663Z,4.70
2023-05-20T00:08:36.906Z,4.77
2023-05-20T00:11:04.521Z,4.80
2023-05-20T00:13:32.426Z,4.30
2023-05-20T00:16:00.497Z,4.80
2023-05-20T00:18:30.968Z,4.40
2023-05-20T00:21:00.552Z,4.43
2023-05-20T00:23:28.885Z,4.93
2023-05-20T00:26:00.579Z,4.53
2023-05-20T00:28:28.468Z,4.57
2023-05-20T00:30:58.140Z,4.80
2023-05-20T00:33:26.131Z,4.70
2023-05-20T00:35:54.967Z,4.73
2023-05-20T00:38:22.561Z,4.90
2023-05-20T00:40:51.104Z,4.10
2023-05-20T00:43:20.976Z,4.67
2023-05-20T00:45:50.806Z,4.90
2023-05-20T00:48:21.179Z,4.07
2023-05-20T00:50:49.977Z,5.27
2023-05-20T00:53:21.596Z,4.30
2023-05-20T00:55:49.857Z,4.93
2023-05-20T00:58:19.185Z,5.10
2023-05-20T01:00:50.921Z,4.30
2023-05-20T01:03:22.267Z,4.70
2023-05-20T01:05:51.239Z,4.80
2023-05-20T01:08:19.185Z,4.57
2023-05-20T01:10:52.801Z,4.40
2023-05-20T01:13:22.821Z,5.00
2023-05-20T01:15:53.708Z,4.70
2023-05-20T01:18:27.745Z,5.10
2023-05-20T01:21:00.092Z,5.17
2023-05-20T01:23:55.039Z,4.47
2023-05-20T01:26:27.579Z,4.93
2023-05-20T01:28:58.325Z,5.00
2023-05-20T01:31:34.758Z,4.80
2023-05-20T01:34:03.627Z,4.80
2023-05-20T01:36:32.418Z,4.97
2023-05-20T01:39:01.627Z,5.33
2023-05-20T01:41:32.113Z,5.60
2023-05-20T01:44:01.948Z,5.37
2023-05-20T01:46:33.116Z,5.00
2023-05-20T01:49:03.242Z,5.47
2023-05-20T01:51:33.936Z,4.70
2023-05-20T01:54:01.834Z,4.87
2023-05-20T01:56:30.491Z,4.90
2023-05-20T01:58:59.817Z,4.70
2023-05-20T02:01:30.717Z,5.63
2023-05-20T02:04:01.328Z,4.93
2023-05-20T02:06:29.464Z,5.53
2023-05-20T02:08:57.146Z,5.17
2023-05-20T02:11:25.093Z,5.67
2023-05-20T02:13:55.450Z,5.17
2023-05-20T02:16:23.911Z,5.60
2023-05-20T02:18:53.180Z,4.63
2023-05-20T02:21:22.349Z,4.60
2023-05-20T02:23:49.883Z,5.43
2023-05-20T02:26:19.650Z,5.30
2023-05-20T02:28:52.785Z,4.80
2023-05-20T02:31:22.876Z,5.67
2023-05-20T02:33:50.662Z,5.10
2023-05-20T02:36:18.410Z,5.90
2023-05-20T02:38:45.930Z,4.83
2023-05-20T02:41:13.179Z,4.30
2023-05-20T02:43:45.272Z,4.87
2023-05-20T02:46:13.100Z,5.00
2023-05-20T02:48:40.977Z,5.87
2023-05-20T02:51:09.417Z,5.50
2023-05-20T02:53:36.951Z,5.50
2023-05-20T02:56:04.902Z,5.00
2023-05-20T02:58:33.702Z,5.60
2023-05-20T03:01:03.068Z,5.83
2023-05-20T03:03:31.079Z,5.30
2023-05-20T03:05:58.472Z,5.40
2023-05-20T03:08:26.107Z,5.60
2023-05-20T03:10:53.594Z,5.20
2023-05-20T03:13:21.985Z,5.90
2023-05-20T03:15:50.789Z,6.07
2023-05-20T03:18:18.895Z,5.80
2023-05-20T03:20:48.401Z,5.60
2023-05-20T03:23:16.320Z,6.57
2023-05-20T03:25:44.330Z,6.00
2023-05-20T03:28:12.266Z,6.40
2023-05-20T03:30:41.995Z,6.67
2023-05-20T03:33:14.126Z,6.20
2023-05-20T03:35:41.942Z,6.03
2023-05-20T03:38:10.675Z,6.30
2023-05-20T03:40:39.994Z,6.20
2023-05-20T03:43:10.174Z,6.50
2023-05-20T03:45:37.739Z,5.53
2023-05-20T03:48:08.183Z,5.70
2023-05-20T03:50:38.124Z,6.20
2023-05-20T03:53:05.953Z,6.10
2023-05-20T03:55:40.743Z,5.77
2023-05-20T03:58:08.579Z,6.30
2023-05-20T04:00:36.691Z,6.30
2023-05-20T04:03:06.869Z,6.40
2023-05-20T04:05:37.260Z,5.50
2023-05-20T04:08:13.950Z,6.60
2023-05-20T04:10:44.372Z,6.33
2023-05-20T04:13:13.513Z,6.10
2023-05-20T04:15:42.130Z,6.17
2023-05-20T04:18:13.870Z,6.23
2023-05-20T04:20:43.301Z,6.63
2023-05-20T04:23:12.522Z,6.23
2023-05-20T04:25:42.168Z,6.43
2023-05-20T04:28:14.227Z,6.70
2023-05-20T04:30:42.498Z,6.40
2023-05-20T04:33:11.169Z,6.80
2023-05-20T04:35:42.175Z,7.03
2023-05-20T04:38:11.432Z,7.57
2023-05-20T04:40:39.970Z,6.30
2023-05-20T04:43:07.970Z,6.63
2023-05-20T04:45:36.637Z,7.60
2023-05-20T04:48:06.032Z,7.30
2023-05-20T04:50:34.825Z,9.40
2023-05-20T04:53:06.086Z,7.13
2023-05-20T04:55:34.434Z,7.07
2023-05-20T04:58:02.628Z,7.50
2023-05-20T05:00:30.415Z,7.33
2023-05-20T05:03:00.089Z,8.13
2023-05-20T05:05:27.799Z,6.93
2023-05-20T05:07:57.413Z,6.93
2023-05-20T05:10:25.376Z,7.80
2023-05-20T05:12:52.976Z,6.50
2023-05-20T05:15:20.454Z,7.53
2023-05-20T05:17:48.122Z,11.07
2023-05-20T05:20:16.259Z,8.53
2023-05-20T05:22:43.755Z,11.07
2023-05-20T05:25:12.360Z,8.50
2023-05-20T05:27:39.863Z,10.13
2023-05-20T05:30:08.480Z,9.70
2023-05-20T05:32:36.124Z,7.93
2023-05-20T05:35:04.641Z,7.90
2023-05-20T05:37:32.819Z,8.37
2023-05-20T05:40:03.518Z,9.40
2023-05-20T05:42:31.184Z,10.07
2023-05-20T05:44:58.465Z,9.23
2023-05-20T05:47:31.591Z,9.00
2023-05-20T05:50:01.046Z,8.83
2023-05-20T05:52:30.287Z,10.60
2023-05-20T05:54:57.961Z,8.83
2023-05-20T05:57:25.939Z,8.03
2023-05-20T05:59:53.791Z,8.63
2023-05-20T06:02:21.565Z,8.27
2023-05-20T06:04:55.609Z,7.60
2023-05-20T06:07:24.438Z,8.23
2023-05-20T06:09:52.470Z,8.60
2023-05-20T06:12:20.965Z,8.67
2023-05-20T06:14:50.849Z,9.10
2023-05-20T06:17:18.180Z,8.40
2023-05-20T06:19:47.541Z,9.27
2023-05-20T06:22:17.119Z,8.70
2023-05-20T06:24:45.753Z,9.20
2023-05-20T06:27:14.148Z,9.47
2023-05-20T06:29:43.095Z,9.27
2023-05-20T06:32:12.886Z,9.73
2023-05-20T06:34:40.831Z,8.60
2023-05-20T06:37:08.909Z,8.63
2023-05-20T06:39:37.218Z,9.50
2023-05-20T06:42:06.099Z,8.50
2023-05-20T06:44:37.238Z,8.53
2023-05-20T06:47:20.410Z,9.33
2023-05-20T06:49:50.653Z,9.87
2023-05-20T06:52:17.882Z,9.47
2023-05-20T06:54:47.979Z,9.50
2023-05-20T06:57:16.248Z,9.63
2023-05-20T06:59:43.558Z,10.03
2023-05-20T07:02:11.572Z,10.20
2023-05-20T07:04:39.924Z,10.70
2023-05-20T07:07:08.174Z,10.67
2023-05-20T07:09:36.627Z,9.97
2023-05-20T07:12:06.718Z,10.00
2023-05-20T07:14:34.944Z,10.53
2023-05-20T07:17:03.269Z,10.60
2023-05-20T07:19:32.174Z,10.57
2023-05-20T07:22:00.134Z,10.27
2023-05-20T07:24:53.210Z,11.00
2023-05-20T07:27:21.172Z,10.80
2023-05-20T07:29:48.634Z,11.53
2023-05-20T07:32:16.489Z,11.00
2023-05-20T07:34:44.492Z,11.43
2023-05-20T07:37:13.489Z,11.70
2023-05-20T07:39:42.065Z,12.10
2023-05-20T07:42:15.751Z,11.03
2023-05-20T07:44:46.589Z,12.20
2023-05-20T07:47:15.098Z,11.87
2023-05-20T07:49:44.546Z,11.60
2023-05-20T07:52:12.118Z,11.03
2023-05-20T07:54:39.776Z,10.80
2023-05-20T07:57:08.414Z,12.90
2023-05-20T07:59:35.994Z,12.97
2023-05-20T08:02:04.066Z,11.33
2023-05-20T08:04:31.850Z,11.70
2023-05-20T08:07:00.055Z,11.57
2023-05-20T08:09:40.603Z,12.00
2023-05-20T08:12:08.275Z,12.47
2023-05-20T08:14:35.694Z,10.60
2023-05-20T08:17:03.875Z,12.40
2023-05-20T08:19:31.625Z,11.97
2023-05-20T08:21:59.022Z,12.13
2023-05-20T08:24:29.396Z,12.10
2023-05-20T08:26:59.605Z,12.10
2023-05-20T08:29:27.876Z,12.87
2023-05-20T08:31:55.379Z,12.30
2023-05-20T08:34:25.905Z,12.30
2023-05-20T08:36:53.802Z,12.43
2023-05-20T08:39:25.130Z,12.03
2023-05-20T08:41:55.400Z,12.30
2023-05-20T08:44:24.038Z,11.73
2023-05-20T08:46:52.958Z,12.47
2023-05-20T08:49:21.537Z,11.83
2023-05-20T08:51:49.164Z,13.00
2023-05-20T08:54:17.617Z,12.90
2023-05-20T08:56:44.981Z,14.00
2023-05-20T08:59:12.678Z,12.60
2023-05-20T09:01:48.779Z,13.30
2023-05-20T09:04:17.896Z,11.60
2023-05-20T09:06:48.618Z,12.17
2023-05-20T09:09:16.103Z,14.17
2023-05-20T09:11:43.947Z,12.60
2023-05-20T09:14:12.238Z,13.40
2023-05-20T09:16:41.744Z,13.37
2023-05-20T09:19:10.442Z,13.10
2023-05-20T09:21:42.899Z,13.17
2023-05-20T09:24:10.778Z,13.17
2023-05-20T09:26:39.057Z,13.47
2023-05-20T09:29:08.461Z,13.70
2023-05-20T09:31:41.317Z,14.77
2023-05-20T09:34:12.351Z,13.47
2023-05-20T09:36:42.175Z,12.97
2023-05-20T09:39:14.890Z,14.50
2023-05-20T09:42:08.700Z,14.23
2023-05-20T09:44:37.671Z,13.70
2023-05-20T09:47:09.973Z,13.27
2023-05-20T09:49:42.742Z,13.40
2023-05-20T09:52:10.751Z,12.40
2023-05-20T09:54:39.675Z,12.63
2023-05-20T09:57:10.705Z,12.87
2023-05-20T09:59:41.112Z,12.40
2023-05-20T10:02:11.229Z,13.03
2023-05-20T10:04:43.218Z,13.10
2023-05-20T10:07:41.329Z,12.80
2023-05-20T10:10:30.172Z,12.10
2023-05-20T10:13:08.586Z,11.90
2023-05-20T10:15:53.133Z,13.70
2023-05-20T10:18:29.853Z,13.33
2023-05-20T10:20:57.312Z,13.50
2023-05-20T10:23:36.786Z,14.20
2023-05-20T10:26:11.052Z,13.43
2023-05-20T10:28:40.078Z,12.40
2023-05-20T10:31:18.174Z,13.37
2023-05-20T10:33:49.786Z,12.70
2023-05-20T10:36:32.858Z,13.00
2023-05-20T10:39:02.181Z,11.97
2023-05-20T10:44:13.374Z,12.33
2023-05-20T10:46:57.244Z,13.30
2023-05-20T10:49:35.134Z,12.67
2023-05-20T10:52:08.281Z,12.60
2023-05-20T10:54:50.182Z,13.60
2023-05-20T10:57:19.374Z,15.50
2023-05-20T10:59:49.134Z,13.57
2023-05-20T11:02:18.738Z,12.63
2023-05-20T11:04:50.876Z,12.00
2023-05-20T11:07:31.615Z,12.60
2023-05-20T11:10:00.704Z,13.53
2023-05-20T11:12:33.618Z,11.67
2023-05-20T11:15:05.425Z,11.97
2023-05-20T11:17:41.486Z,12.07
2023-05-20T11:20:10.399Z,12.47
2023-05-20T11:22:41.564Z,11.70
2023-05-20T11:25:10.725Z,11.50
2023-05-20T11:27:42.164Z,14.23
2023-05-20T11:30:11.517Z,13.13
2023-05-20T11:32:39.364Z,12.47
2023-05-20T11:35:09.369Z,12.40
2023-05-20T11:37:38.338Z,12.27
2023-05-20T11:40:08.020Z,11.80
2023-05-20T11:42:38.665Z,12.10
2023-05-20T11:45:08.969Z,11.83
2023-05-20T11:47:37.888Z,13.53
2023-05-20T11:50:06.609Z,12.10
2023-05-20T11:52:35.019Z,12.80
2023-05-20T11:55:02.256Z,12.10
2023-05-20T11:57:30.626Z,11.70
2023-05-20T11:59:57.898Z,12.57
2023-05-20T12:02:27.527Z,13.73
2023-05-20T12:04:55.959Z,11.60
2023-05-20T12:07:30.601Z,12.20
2023-05-20T12:09:58.388Z,11.77
2023-05-20T12:12:28.310Z,12.47
2023-05-20T12:14:56.707Z,12.07
2023-05-20T12:17:26.052Z,12.00
2023-05-20T12:19:54.502Z,12.60
2023-05-20T12:22:22.014Z,11.53
2023-05-20T12:24:51.388Z,12.80
2023-05-20T12:27:19.163Z,11.77
2023-05-20T12:29:46.804Z,11.00
2023-05-20T12:32:14.779Z,12.63
2023-05-20T12:34:43.451Z,12.77
2023-05-20T12:37:10.789Z,14.43
2023-05-20T12:39:39.625Z,13.33
2023-05-20T12:42:06.985Z,13.17
2023-05-20T12:44:34.311Z,14.13
2023-05-20T12:47:01.814Z,12.87
2023-05-20T12:49:30.546Z,12.97
2023-05-20T12:52:01.491Z,12.70
2023-05-20T12:54:31.007Z,14.13
2023-05-20T12:56:59.873Z,13.80
2023-05-20T12:59:27.378Z,13.30
2023-05-20T13:01:55.182Z,13.77
2023-05-20T13:04:23.212Z,13.43
2023-05-20T13:06:50.987Z,12.93
2023-05-20T13:09:18.406Z,12.07
2023-05-20T13:11:45.940Z,14.07
2023-05-20T13:14:14.418Z,12.53
2023-05-20T13:16:43.742Z,13.13
2023-05-20T13:19:11.131Z,14.77
2023-05-20T13:21:39.718Z,14.20
2023-05-20T13:24:08.598Z,14.33
2023-05-20T13:26:38.295Z,13.60
2023-05-20T13:29:08.610Z,13.53
2023-05-20T13:31:36.028Z,13.00
2023-05-20T13:34:04.088Z,14.73
2023-05-20T13:36:36.235Z,13.00
2023-05-20T13:39:07.615Z,14.57
2023-05-20T13:41:35.155Z,14.30
2023-05-20T13:44:02.833Z,13.90
2023-05-20T13:46:33.116Z,13.53
2023-05-20T13:49:00.368Z,13.00
2023-05-20T13:51:28.368Z,13.60
2023-05-20T13:53:55.755Z,13.13
2023-05-20T13:56:24.580Z,13.67
2023-05-20T13:58:56.165Z,14.17
2023-05-20T14:01:23.936Z,13.77
2023-05-20T14:03:56.122Z,14.40
2023-05-20T14:06:23.967Z,13.50
2023-05-20T14:08:51.231Z,14.37
2023-05-20T14:11:18.732Z,12.83
2023-05-20T14:13:46.577Z,14.57
2023-05-20T14:16:13.865Z,14.17
2023-05-20T14:18:41.642Z,13.47
2023-05-20T14:21:08.950Z,14.40
2023-05-20T14:23:36.164Z,14.70
2023-05-20T14:26:03.435Z,13.70
2023-05-20T14:28:30.671Z,14.20
2023-05-20T14:30:57.954Z,14.83
2023-05-20T14:33:25.215Z,13.70
2023-05-20T14:35:52.969Z,14.07
2023-05-20T14:38:21.950Z,16.27
2023-05-20T14:40:49.952Z,14.70
2023-05-20T14:43:19.703Z,14.07
2023-05-20T14:45:49.063Z,14.43
2023-05-20T14:48:18.945Z,13.93
2023-05-20T14:50:49.942Z,13.70
2023-05-20T14:53:19.349Z,13.00
2023-05-20T14:55:46.665Z,13.53
2023-05-20T14:58:15.925Z,14.80
2023-05-20T15:00:46.379Z,13.80
2023-05-20T15:03:14.029Z,12.60
2023-05-20T15:05:42.696Z,14.10
2023-05-20T15:08:10.504Z,13.80
2023-05-20T15:10:39.477Z,14.30
2023-05-20T15:13:07.106Z,12.87
2023-05-20T15:15:34.625Z,13.50
2023-05-20T15:18:02.203Z,13.67
2023-05-20T15:20:31.874Z,12.60
2023-05-20T15:23:00.866Z,13.87
2023-05-20T15:25:28.955Z,13.83
2023-05-20T15:27:56.535Z,12.80
2023-05-20T15:30:23.954Z,13.17
2023-05-20T15:32:51.348Z,13.83
2023-05-20T15:35:18.882Z,12.90
2023-05-20T15:37:46.355Z,13.23
2023-05-20T15:40:13.742Z,12.80
2023-05-20T15:42:48.728Z,12.93
2023-05-20T15:45:16.777Z,13.53
2023-05-20T15:47:54.420Z,12.90
2023-05-20T15:50:25.335Z,14.27
2023-05-20T15:52:56.203Z,13.60
2023-05-20T15:55:27.203Z,13.63
2023-05-20T15:57:54.825Z,12.80
2023-05-20T16:00:24.981Z,14.17
2023-05-20T16:02:54.356Z,13.60
2023-05-20T16:05:26.441Z,12.70
2023-05-20T16:07:55.425Z,13.90
2023-05-20T16:10:28.012Z,15.00
2023-05-20T16:12:56.260Z,12.47
2023-05-20T16:15:25.383Z,14.20
2023-05-20T16:17:53.947Z,15.40
2023-05-20T16:20:24.454Z,14.77
2023-05-20T16:22:52.831Z,13.60
2023-05-20T16:25:20.867Z,13.53
2023-05-20T16:27:53.233Z,13.87
2023-05-20T16:30:23.124Z,13.27
2023-05-20T16:32:51.879Z,13.50
2023-05-20T16:35:19.292Z,14.97
2023-05-20T16:37:46.885Z,14.20
2023-05-20T16:40:15.174Z,13.50
2023-05-20T16:42:44.211Z,13.50
2023-05-20T16:45:11.714Z,13.67
2023-05-20T16:47:39.059Z,12.70
2023-05-20T16:50:07.297Z,14.67
2023-05-20T16:52:37.688Z,13.57
2023-05-20T16:55:08.234Z,14.80
2023-05-20T16:57:35.829Z,13.70
2023-05-20T17:00:07.628Z,14.20
2023-05-20T17:02:35.028Z,14.40
2023-05-20T17:05:02.455Z,14.47
2023-05-20T17:07:30.053Z,14.60
2023-05-20T17:09:57.391Z,16.30
2023-05-20T17:12:24.974Z,12.87
2023-05-20T17:14:52.265Z,14.70
2023-05-20T17:17:19.577Z,15.00
2023-05-20T17:19:46.928Z,15.07
2023-05-20T17:22:14.322Z,14.93
2023-05-20T17:24:41.625Z,15.90
2023-05-20T17:27:08.945Z,17.20
2023-05-20T17:29:36.352Z,15.50
2023-05-20T17:32:03.734Z,17.50
2023-05-20T17:34:31.187Z,15.93
2023-05-20T17:36:59.683Z,16.50
2023-05-20T17:39:27.050Z,15.57
2023-05-20T17:41:55.489Z,15.97
2023-05-20T17:44:22.882Z,15.73
2023-05-20T17:46:51.012Z,16.37
2023-05-20T17:49:18.363Z,17.50
2023-05-20T17:51:46.225Z,17.33
2023-05-20T17:54:13.847Z,18.57
2023-05-20T17:56:43.289Z,17.23
2023-05-20T17:59:10.751Z,17.47
2023-05-20T18:01:38.845Z,16.87
2023-05-20T18:04:07.740Z,17.70
2023-05-20T18:06:35.757Z,17.73
2023-05-20T18:09:04.546Z,16.10
2023-05-20T18:11:32.497Z,17.10
2023-05-20T18:14:00.362Z,17.30
2023-05-20T18:16:29.871Z,16.80
2023-05-20T18:18:57.809Z,18.57
2023-05-20T18:21:26.267Z,18.40
2023-05-20T18:23:53.653Z,18.80
2023-05-20T18:26:21.593Z,17.47
2023-05-20T18:28:49.957Z,17.77
2023-05-20T18:31:17.480Z,19.20
2023-05-20T18:33:46.993Z,19.17
2023-05-20T18:36:14.453Z,18.70
2023-05-20T18:38:42.054Z,18.20
2023-05-20T18:41:09.567Z,19.50
2023-05-20T18:43:36.905Z,18.43
2023-05-20T18:46:04.254Z,18.70
2023-05-20T18:48:31.608Z,18.20
2023-05-20T18:50:59.719Z,18.40
2023-05-20T18:53:27.055Z,19.80
2023-05-20T18:55:55.922Z,19.63
2023-05-20T18:58:23.263Z,20.47
2023-05-20T19:00:51.084Z,20.13
2023-05-20T19:03:18.419Z,22.30
2023-05-20T19:05:45.963Z,17.47
2023-05-20T19:08:13.265Z,21.00
2023-05-20T19:10:43.882Z,19.97
2023-05-20T19:13:11.129Z,18.53
2023-05-20T19:15:38.477Z,19.37
2023-05-20T19:18:06.088Z,18.07
2023-05-20T19:20:34.370Z,19.17
2023-05-20T19:23:01.713Z,19.60
2023-05-20T19:25:28.983Z,19.67
2023-05-20T19:27:56.298Z,19.13
2023-05-20T19:30:23.529Z,18.77
2023-05-20T19:32:50.879Z,20.80
2023-05-20T19:35:18.204Z,20.37
2023-05-20T19:37:45.691Z,19.50
2023-05-20T19:40:13.728Z,20.53
2023-05-20T19:42:41.204Z,20.93
2023-05-20T19:45:08.840Z,19.60
2023-05-20T19:47:36.778Z,20.10
2023-05-20T19:50:04.491Z,20.53
2023-05-20T19:52:32.296Z,18.93
2023-05-20T19:54:59.826Z,19.93
2023-05-20T19:57:27.991Z,19.33
2023-05-20T19:59:56.845Z,21.63
2023-05-20T20:02:26.472Z,21.70
2023-05-20T20:04:55.971Z,20.70
2023-05-20T20:07:23.815Z,20.43
2023-05-20T20:09:55.319Z,18.50
2023-05-20T20:12:25.802Z,19.07
2023-05-20T20:14:54.502Z,19.37
2023-05-20T20:17:24.391Z,20.40
2023-05-20T20:19:55.800Z,18.83
2023-05-20T20:22:23.294Z,20.20
2023-05-20T20:24:53.385Z,19.07
2023-05-20T20:27:23.957Z,19.40
2023-05-20T20:29:52.642Z,18.57
2023-05-20T20:32:20.171Z,20.03
2023-05-20T20:34:47.499Z,18.83
2023-05-20T20:37:15.746Z,18.70
2023-05-20T20:39:46.729Z,18.77
2023-05-20T20:42:16.850Z,18.00
2023-05-20T20:44:48.487Z,18.07
2023-05-20T20:47:16.977Z,18.50
2023-05-20T20:49:45.968Z,19.10
2023-05-20T20:52:13.401Z,19.40
2023-05-20T20:54:43.383Z,17.03
2023-05-20T20:57:11.682Z,17.80
2023-05-20T20:59:42.972Z,18.10
2023-05-20T21:02:10.821Z,16.53
2023-05-20T21:04:41.175Z,18.70
2023-05-20T21:07:08.728Z,18.30
2023-05-20T21:09:38.194Z,17.90
2023-05-20T21:12:07.034Z,18.47
2023-05-20T21:14:38.695Z,18.83
2023-05-20T21:17:06.196Z,18.40
2023-05-20T21:19:36.147Z,19.50
2023-05-20T21:22:05.407Z,18.10
2023-05-20T21:24:35.017Z,19.13
2023-05-20T21:27:04.038Z,18.70
2023-05-20T21:29:31.367Z,18.53
2023-05-20T21:31:59.056Z,17.33
2023-05-20T21:34:26.514Z,17.77
2023-05-20T21:36:55.197Z,18.63
2023-05-20T21:39:22.902Z,19.50
2023-05-20T21:41:51.224Z,18.23
2023-05-20T21:44:19.178Z,17.10
2023-05-20T21:46:47.585Z,18.33
2023-05-20T21:49:16.081Z,16.27
2023-05-20T21:51:43.592Z,16.80
2023-05-20T21:54:13.496Z,16.93
2023-05-20T21:56:40.753Z,16.70
2023-05-20T21:59:08.207Z,18.10
2023-05-20T22:01:36.048Z,18.20
2023-05-20T22:04:03.686Z,15.87
2023-05-20T22:06:35.208Z,18.37
2023-05-20T22:09:03.404Z,16.50
2023-05-20T22:11:31.507Z,16.60
2023-05-20T22:13:59.734Z,17.43
2023-05-20T22:16:29.262Z,16.63
2023-05-20T22:18:57.884Z,17.60
2023-05-20T22:21:39.653Z,16.80
2023-05-20T22:24:15.043Z,16.47
2023-05-20T22:26:42.408Z,15.97
2023-05-20T22:29:10.183Z,15.73
2023-05-20T22:31:39.604Z,17.30
2023-05-20T22:34:07.165Z,16.90
2023-05-20T22:36:36.386Z,18.80
2023-05-20T22:39:05.029Z,17.20
2023-05-20T22:41:32.476Z,16.37
2023-05-20T22:44:03.204Z,16.37
2023-05-20T22:46:31.371Z,16.83
2023-05-20T22:49:01.641Z,16.87
2023-05-20T22:51:34.115Z,17.77
2023-05-20T22:54:02.048Z,16.63
2023-05-20T22:56:32.073Z,15.80
2023-05-20T22:59:00.539Z,15.70
2023-05-20T23:01:27.863Z,16.60
2023-05-20T23:03:55.983Z,16.30
2023-05-20T23:06:23.710Z,16.50
2023-05-20T23:08:52.025Z,16.57
2023-05-20T23:11:19.521Z,17.10
2023-05-20T23:13:47.609Z,17.17
2023-05-20T23:16:17.900Z,15.17
2023-05-20T23:18:47.262Z,16.20
2023-05-20T23:21:15.619Z,15.97
2023-05-20T23:23:43.459Z,16.50
2023-05-20T23:26:11.062Z,16.47
2023-05-20T23:28:38.561Z,15.93
2023-05-20T23:31:06.640Z,17.30
2023-05-20T23:33:34.386Z,16.00
2023-05-20T23:36:03.102Z,16.17
2023-05-20T23:38:32.266Z,16.30
2023-05-20T23:41:00.620Z,16.20
2023-05-20T23:43:28.440Z,16.20
2023-05-20T23:45:56.001Z,15.93
2023-05-20T23:48:26.790Z,17.40
2023-05-20T23:50:55.674Z,16.97
2023-05-20T23:53:27.025Z,16.77
2023-05-20T23:55:57.253Z,15.53
2023-05-20T23:58:25.103Z,17.03
